N624MT KORL-KLAL
Flight info
| Callsign | N624MT |
|---|---|
| Flight time | 0h 15m |
| Altitude | 8000 |
| Route | VARZE GUUNR |
| Aircraft | C700/M-VGDW/C |
Departure
| Time | 2026-04-21 23:03 |
|---|---|
| Airport | Orlando Executive Airport (KORL) |
Arrival
| Time | 2026-04-21 23:19 |
|---|---|
| Airport | Lakeland Linder International Airport (KLAL) |
| Time | Latitude | Longitude | Altitude | Speed | Heading |
|---|---|---|---|---|---|
| 2026-04-21 22:59 | 28.54924 | -81.33964 | 108 ft | 0 kts | 37° |
| 2026-04-21 23:01 | 28.54924 | -81.33984 | 108 ft | 8 kts | 141° |
| 2026-04-21 23:02 | 28.54927 | -81.33987 | 105 ft | 0 kts | 145° |
| 2026-04-21 23:02 | 28.54911 | -81.34027 | 108 ft | 16 kts | 303° |
| 2026-04-21 23:02 | 28.54886 | -81.34100 | 108 ft | 7 kts | 193° |
| 2026-04-21 23:02 | 28.54809 | -81.34029 | 107 ft | 50 kts | 128° |
| 2026-04-21 23:03 | 28.54334 | -81.33421 | 287 ft | 143 kts | 130° |
| 2026-04-21 23:03 | 28.53324 | -81.32559 | 395 ft | 222 kts | 156° |
| 2026-04-21 23:03 | 28.51746 | -81.32747 | 1041 ft | 260 kts | 204° |
| 2026-04-21 23:03 | 28.50563 | -81.34355 | 2617 ft | 277 kts | 247° |
| 2026-04-21 23:04 | 28.50382 | -81.36549 | 4451 ft | 284 kts | 275° |
| 2026-04-21 23:04 | 28.50174 | -81.38793 | 6360 ft | 293 kts | 249° |
| 2026-04-21 23:04 | 28.49181 | -81.40864 | 7810 ft | 302 kts | 240° |
| 2026-04-21 23:04 | 28.48142 | -81.42947 | 8007 ft | 302 kts | 244° |
| 2026-04-21 23:05 | 28.47343 | -81.45108 | 8013 ft | 292 kts | 252° |
| 2026-04-21 23:05 | 28.46698 | -81.47290 | 8006 ft | 291 kts | 252° |
| 2026-04-21 23:05 | 28.46020 | -81.49339 | 8008 ft | 291 kts | 250° |
| 2026-04-21 23:05 | 28.45251 | -81.51462 | 8000 ft | 290 kts | 249° |
| 2026-04-21 23:06 | 28.44503 | -81.53593 | 8002 ft | 290 kts | 250° |
| 2026-04-21 23:06 | 28.43777 | -81.55732 | 8002 ft | 290 kts | 250° |
| 2026-04-21 23:06 | 28.43044 | -81.57871 | 8001 ft | 291 kts | 250° |
| 2026-04-21 23:06 | 28.42297 | -81.60006 | 8003 ft | 291 kts | 250° |
| 2026-04-21 23:07 | 28.41552 | -81.62139 | 8000 ft | 290 kts | 250° |
| 2026-04-21 23:07 | 28.40823 | -81.64279 | 7998 ft | 291 kts | 250° |
| 2026-04-21 23:07 | 28.40102 | -81.66370 | 7996 ft | 291 kts | 249° |
| 2026-04-21 23:07 | 28.39427 | -81.68306 | 7994 ft | 291 kts | 249° |
| 2026-04-21 23:08 | 28.38686 | -81.70443 | 7990 ft | 291 kts | 249° |
| 2026-04-21 23:08 | 28.38185 | -81.71886 | 7991 ft | 291 kts | 249° |
| 2026-04-21 23:09 | 28.38132 | -81.72039 | 7989 ft | 291 kts | 249° |
| 2026-04-21 23:09 | 28.37575 | -81.73652 | 7994 ft | 291 kts | 249° |
| 2026-04-21 23:09 | 28.36833 | -81.75792 | 7987 ft | 292 kts | 249° |
| 2026-04-21 23:09 | 28.36091 | -81.77929 | 7981 ft | 291 kts | 249° |
| 2026-04-21 23:10 | 28.35348 | -81.80068 | 7983 ft | 291 kts | 249° |
| 2026-04-21 23:10 | 28.34602 | -81.82208 | 7986 ft | 291 kts | 249° |
| 2026-04-21 23:10 | 28.33866 | -81.84318 | 7985 ft | 292 kts | 249° |
| 2026-04-21 23:10 | 28.33122 | -81.86457 | 7978 ft | 292 kts | 249° |
| 2026-04-21 23:11 | 28.32379 | -81.88598 | 7982 ft | 291 kts | 249° |
| 2026-04-21 23:11 | 28.31634 | -81.90733 | 7986 ft | 291 kts | 249° |
| 2026-04-21 23:11 | 28.30890 | -81.92868 | 7986 ft | 291 kts | 249° |
| 2026-04-21 23:11 | 28.30144 | -81.95006 | 7981 ft | 291 kts | 248° |
| 2026-04-21 23:12 | 28.29395 | -81.97142 | 7983 ft | 291 kts | 248° |
| 2026-04-21 23:12 | 28.28648 | -81.99280 | 7981 ft | 292 kts | 249° |
| 2026-04-21 23:12 | 28.27908 | -82.01391 | 7982 ft | 292 kts | 248° |
| 2026-04-21 23:12 | 28.26818 | -82.03311 | 7966 ft | 292 kts | 222° |
| 2026-04-21 23:13 | 28.25042 | -82.04355 | 7975 ft | 289 kts | 195° |
| 2026-04-21 23:13 | 28.23123 | -82.04946 | 7973 ft | 277 kts | 193° |
| 2026-04-21 23:13 | 28.21361 | -82.05472 | 7970 ft | 248 kts | 193° |
| 2026-04-21 23:13 | 28.19751 | -82.05962 | 7995 ft | 234 kts | 193° |
| 2026-04-21 23:14 | 28.18186 | -82.06438 | 7998 ft | 233 kts | 193° |
| 2026-04-21 23:14 | 28.16624 | -82.06914 | 7997 ft | 233 kts | 193° |
| 2026-04-21 23:14 | 28.15081 | -82.07387 | 7998 ft | 232 kts | 193° |
| 2026-04-21 23:14 | 28.13497 | -82.07871 | 7266 ft | 243 kts | 193° |
| 2026-04-21 23:15 | 28.11863 | -82.08374 | 5685 ft | 243 kts | 191° |
| 2026-04-21 23:15 | 28.10260 | -82.08866 | 4588 ft | 229 kts | 191° |
| 2026-04-21 23:15 | 28.08769 | -82.09321 | 3604 ft | 217 kts | 190° |
| 2026-04-21 23:15 | 28.07343 | -82.09758 | 2918 ft | 201 kts | 189° |
| 2026-04-21 23:16 | 28.06020 | -82.09781 | 2951 ft | 177 kts | 155° |
| 2026-04-21 23:16 | 28.04980 | -82.09119 | 2467 ft | 169 kts | 148° |
| 2026-04-21 23:16 | 28.03881 | -82.08707 | 1966 ft | 165 kts | 157° |
| 2026-04-21 23:16 | 28.02813 | -82.08291 | 1456 ft | 161 kts | 152° |
| 2026-04-21 23:17 | 28.01825 | -82.07832 | 1252 ft | 149 kts | 151° |
| 2026-04-21 23:17 | 28.00936 | -82.07449 | 1078 ft | 129 kts | 151° |
| 2026-04-21 23:17 | 28.00114 | -82.07083 | 909 ft | 124 kts | 149° |
| 2026-04-21 23:17 | 27.99459 | -82.06575 | 708 ft | 103 kts | 122° |
| 2026-04-21 23:18 | 27.99100 | -82.05918 | 649 ft | 102 kts | 108° |
| 2026-04-21 23:18 | 27.98978 | -82.05107 | 450 ft | 108 kts | 92° |
| 2026-04-21 23:18 | 27.98941 | -82.04303 | 277 ft | 101 kts | 87° |
| 2026-04-21 23:18 | 27.98932 | -82.03500 | 181 ft | 104 kts | 86° |
| 2026-04-21 23:19 | 27.98930 | -82.02797 | 143 ft | 64 kts | 91° |
| 2026-04-21 23:19 | 27.98927 | -82.02426 | 143 ft | 42 kts | 90° |
| 2026-04-21 23:19 | 27.98926 | -82.02004 | 143 ft | 52 kts | 90° |
| 2026-04-21 23:19 | 27.98928 | -82.01630 | 142 ft | 51 kts | 90° |
| 2026-04-21 23:20 | 27.98929 | -82.01255 | 143 ft | 53 kts | 89° |
| 2026-04-21 23:20 | 27.98935 | -82.00931 | 143 ft | 30 kts | 85° |
| 2026-04-21 23:20 | 27.99012 | -82.00783 | 143 ft | 16 kts | 14° |
| 2026-04-21 23:20 | 27.99080 | -82.00775 | 143 ft | 21 kts | 17° |
| 2026-04-21 23:21 | 27.99197 | -82.00821 | 143 ft | 21 kts | 316° |
| 2026-04-21 23:21 | 27.99303 | -82.00945 | 145 ft | 14 kts | 314° |
| 2026-04-21 23:21 | 27.99369 | -82.01041 | 143 ft | 13 kts | 266° |
| 2026-04-21 23:21 | 27.99284 | -82.01159 | 143 ft | 21 kts | 226° |
| 2026-04-21 23:22 | 27.99306 | -82.01291 | 143 ft | 26 kts | 315° |
| 2026-04-21 23:22 | 27.99374 | -82.01332 | 143 ft | 0 kts | 2° |